sensor_id;sensor_type;location;lat;lon;timestamp;P1;durP1;ratioP1;P2;durP2;ratioP2
2259;SDS011;333;48.800;9.530;2023-05-07T00:00:48;9.20;;;4.33;;
2259;SDS011;333;48.800;9.530;2023-05-07T00:03:16;5.63;;;4.40;;
2259;SDS011;333;48.800;9.530;2023-05-07T00:05:45;4.67;;;4.27;;
2259;SDS011;333;48.800;9.530;2023-05-07T00:08:13;6.60;;;3.90;;
2259;SDS011;333;48.800;9.530;2023-05-07T00:10:40;5.43;;;4.13;;
2259;SDS011;333;48.800;9.530;2023-05-07T00:13:07;6.77;;;4.90;;
2259;SDS011;333;48.800;9.530;2023-05-07T00:15:34;5.17;;;4.67;;
2259;SDS011;333;48.800;9.530;2023-05-07T00:18:01;5.03;;;4.27;;
2259;SDS011;333;48.800;9.530;2023-05-07T00:20:29;4.50;;;4.00;;
2259;SDS011;333;48.800;9.530;2023-05-07T00:22:57;4.20;;;3.80;;
2259;SDS011;333;48.800;9.530;2023-05-07T00:25:24;6.80;;;5.30;;
2259;SDS011;333;48.800;9.530;2023-05-07T00:27:51;4.90;;;4.40;;
2259;SDS011;333;48.800;9.530;2023-05-07T00:30:18;4.43;;;4.10;;
2259;SDS011;333;48.800;9.530;2023-05-07T00:32:45;4.40;;;4.00;;
2259;SDS011;333;48.800;9.530;2023-05-07T00:35:14;6.70;;;4.30;;
2259;SDS011;333;48.800;9.530;2023-05-07T00:37:41;5.07;;;4.60;;
2259;SDS011;333;48.800;9.530;2023-05-07T00:40:09;5.37;;;4.87;;
2259;SDS011;333;48.800;9.530;2023-05-07T00:42:37;9.30;;;5.73;;
2259;SDS011;333;48.800;9.530;2023-05-07T00:45:04;7.13;;;5.40;;
2259;SDS011;333;48.800;9.530;2023-05-07T00:47:32;6.00;;;5.40;;
2259;SDS011;333;48.800;9.530;2023-05-07T00:49:59;8.23;;;5.63;;
2259;SDS011;333;48.800;9.530;2023-05-07T00:52:27;5.57;;;5.10;;
2259;SDS011;333;48.800;9.530;2023-05-07T00:54:55;5.73;;;5.13;;
2259;SDS011;333;48.800;9.530;2023-05-07T00:57:23;5.47;;;4.97;;
2259;SDS011;333;48.800;9.530;2023-05-07T00:59:51;8.20;;;5.33;;
2259;SDS011;333;48.800;9.530;2023-05-07T01:02:18;5.70;;;5.10;;
2259;SDS011;333;48.800;9.530;2023-05-07T01:04:45;5.70;;;5.20;;
2259;SDS011;333;48.800;9.530;2023-05-07T01:07:12;5.23;;;4.73;;
2259;SDS011;333;48.800;9.530;2023-05-07T01:09:39;7.13;;;5.77;;
2259;SDS011;333;48.800;9.530;2023-05-07T01:12:06;5.70;;;5.30;;
2259;SDS011;333;48.800;9.530;2023-05-07T01:14:35;7.03;;;5.37;;
2259;SDS011;333;48.800;9.530;2023-05-07T01:17:02;5.37;;;4.97;;
2259;SDS011;333;48.800;9.530;2023-05-07T01:19:29;7.13;;;4.57;;
2259;SDS011;333;48.800;9.530;2023-05-07T01:22:00;5.13;;;4.70;;
2259;SDS011;333;48.800;9.530;2023-05-07T01:24:32;5.80;;;5.20;;
2259;SDS011;333;48.800;9.530;2023-05-07T01:26:59;5.80;;;5.30;;
2259;SDS011;333;48.800;9.530;2023-05-07T01:29:27;5.07;;;4.57;;
2259;SDS011;333;48.800;9.530;2023-05-07T01:31:54;4.97;;;4.57;;
2259;SDS011;333;48.800;9.530;2023-05-07T01:34:24;4.77;;;4.37;;
2259;SDS011;333;48.800;9.530;2023-05-07T01:36:53;4.67;;;4.27;;
2259;SDS011;333;48.800;9.530;2023-05-07T01:39:23;4.70;;;4.33;;
2259;SDS011;333;48.800;9.530;2023-05-07T01:41:53;8.10;;;4.67;;
2259;SDS011;333;48.800;9.530;2023-05-07T01:44:22;5.37;;;4.87;;
2259;SDS011;333;48.800;9.530;2023-05-07T01:46:49;6.10;;;5.50;;
2259;SDS011;333;48.800;9.530;2023-05-07T01:49:16;6.00;;;5.50;;
2259;SDS011;333;48.800;9.530;2023-05-07T01:51:44;5.23;;;4.83;;
2259;SDS011;333;48.800;9.530;2023-05-07T01:54:11;5.13;;;4.73;;
2259;SDS011;333;48.800;9.530;2023-05-07T01:56:38;4.90;;;4.50;;
2259;SDS011;333;48.800;9.530;2023-05-07T01:59:06;6.27;;;5.53;;
2259;SDS011;333;48.800;9.530;2023-05-07T02:01:33;4.70;;;4.30;;
2259;SDS011;333;48.800;9.530;2023-05-07T02:04:00;5.70;;;5.20;;
2259;SDS011;333;48.800;9.530;2023-05-07T02:06:27;5.77;;;5.23;;
2259;SDS011;333;48.800;9.530;2023-05-07T02:08:54;5.07;;;4.40;;
2259;SDS011;333;48.800;9.530;2023-05-07T02:11:21;13.93;;;5.30;;
2259;SDS011;333;48.800;9.530;2023-05-07T02:13:48;6.70;;;6.00;;
2259;SDS011;333;48.800;9.530;2023-05-07T02:16:16;4.53;;;4.20;;
2259;SDS011;333;48.800;9.530;2023-05-07T02:18:44;5.73;;;5.10;;
2259;SDS011;333;48.800;9.530;2023-05-07T02:21:11;5.43;;;4.93;;
2259;SDS011;333;48.800;9.530;2023-05-07T02:23:38;6.23;;;5.63;;
2259;SDS011;333;48.800;9.530;2023-05-07T02:26:05;6.27;;;5.53;;
2259;SDS011;333;48.800;9.530;2023-05-07T02:28:32;6.80;;;6.10;;
2259;SDS011;333;48.800;9.530;2023-05-07T02:31:00;11.00;;;5.60;;
2259;SDS011;333;48.800;9.530;2023-05-07T02:33:30;6.87;;;6.23;;
2259;SDS011;333;48.800;9.530;2023-05-07T02:35:57;6.67;;;5.93;;
2259;SDS011;333;48.800;9.530;2023-05-07T02:38:31;9.53;;;6.17;;
2259;SDS011;333;48.800;9.530;2023-05-07T02:40:58;10.73;;;6.57;;
2259;SDS011;333;48.800;9.530;2023-05-07T02:43:25;5.50;;;5.00;;
2259;SDS011;333;48.800;9.530;2023-05-07T02:45:59;6.40;;;5.80;;
2259;SDS011;333;48.800;9.530;2023-05-07T02:48:27;6.00;;;5.50;;
2259;SDS011;333;48.800;9.530;2023-05-07T02:50:56;8.00;;;5.30;;
2259;SDS011;333;48.800;9.530;2023-05-07T02:53:23;5.43;;;4.37;;
2259;SDS011;333;48.800;9.530;2023-05-07T02:55:51;4.03;;;3.73;;
2259;SDS011;333;48.800;9.530;2023-05-07T02:58:18;5.27;;;3.93;;
2259;SDS011;333;48.800;9.530;2023-05-07T03:00:45;4.30;;;4.00;;
2259;SDS011;333;48.800;9.530;2023-05-07T03:03:12;4.77;;;4.37;;
2259;SDS011;333;48.800;9.530;2023-05-07T03:05:39;6.43;;;4.80;;
2259;SDS011;333;48.800;9.530;2023-05-07T03:08:08;4.77;;;4.37;;
2259;SDS011;333;48.800;9.530;2023-05-07T03:10:36;6.00;;;4.47;;
2259;SDS011;333;48.800;9.530;2023-05-07T03:13:03;4.90;;;4.40;;
2259;SDS011;333;48.800;9.530;2023-05-07T03:15:31;5.47;;;4.97;;
2259;SDS011;333;48.800;9.530;2023-05-07T03:17:58;3.87;;;3.57;;
2259;SDS011;333;48.800;9.530;2023-05-07T03:20:25;4.40;;;4.10;;
2259;SDS011;333;48.800;9.530;2023-05-07T03:22:51;5.07;;;4.40;;
2259;SDS011;333;48.800;9.530;2023-05-07T03:25:20;4.93;;;4.60;;
2259;SDS011;333;48.800;9.530;2023-05-07T03:27:47;6.20;;;5.70;;
2259;SDS011;333;48.800;9.530;2023-05-07T03:30:14;6.13;;;5.60;;
2259;SDS011;333;48.800;9.530;2023-05-07T03:32:41;12.00;;;5.40;;
2259;SDS011;333;48.800;9.530;2023-05-07T03:35:08;6.53;;;5.93;;
2259;SDS011;333;48.800;9.530;2023-05-07T03:37:35;6.50;;;5.27;;
2259;SDS011;333;48.800;9.530;2023-05-07T03:40:02;6.70;;;6.20;;
2259;SDS011;333;48.800;9.530;2023-05-07T03:42:31;6.77;;;6.17;;
2259;SDS011;333;48.800;9.530;2023-05-07T03:44:58;8.30;;;6.40;;
2259;SDS011;333;48.800;9.530;2023-05-07T03:47:25;6.60;;;6.00;;
2259;SDS011;333;48.800;9.530;2023-05-07T03:49:52;6.60;;;6.00;;
2259;SDS011;333;48.800;9.530;2023-05-07T03:52:20;7.67;;;6.87;;
2259;SDS011;333;48.800;9.530;2023-05-07T03:54:50;7.73;;;5.90;;
2259;SDS011;333;48.800;9.530;2023-05-07T03:57:18;6.93;;;6.23;;
2259;SDS011;333;48.800;9.530;2023-05-07T03:59:46;6.50;;;5.87;;
2259;SDS011;333;48.800;9.530;2023-05-07T04:02:13;7.33;;;6.60;;
2259;SDS011;333;48.800;9.530;2023-05-07T04:04:40;6.77;;;6.17;;
2259;SDS011;333;48.800;9.530;2023-05-07T04:07:07;6.60;;;5.77;;
2259;SDS011;333;48.800;9.530;2023-05-07T04:09:35;7.67;;;6.20;;
2259;SDS011;333;48.800;9.530;2023-05-07T04:12:02;6.47;;;5.87;;
2259;SDS011;333;48.800;9.530;2023-05-07T04:14:29;7.17;;;6.57;;
2259;SDS011;333;48.800;9.530;2023-05-07T04:16:58;7.47;;;6.77;;
2259;SDS011;333;48.800;9.530;2023-05-07T04:19:25;6.67;;;6.07;;
2259;SDS011;333;48.800;9.530;2023-05-07T04:21:52;7.83;;;7.07;;
2259;SDS011;333;48.800;9.530;2023-05-07T04:24:19;7.30;;;6.63;;
2259;SDS011;333;48.800;9.530;2023-05-07T04:26:46;7.00;;;6.27;;
2259;SDS011;333;48.800;9.530;2023-05-07T04:29:14;7.30;;;6.73;;
2259;SDS011;333;48.800;9.530;2023-05-07T04:31:41;7.37;;;6.67;;
2259;SDS011;333;48.800;9.530;2023-05-07T04:34:10;6.23;;;5.70;;
2259;SDS011;333;48.800;9.530;2023-05-07T04:36:37;5.50;;;5.10;;
2259;SDS011;333;48.800;9.530;2023-05-07T04:39:04;5.97;;;5.43;;
2259;SDS011;333;48.800;9.530;2023-05-07T04:41:32;6.00;;;5.50;;
2259;SDS011;333;48.800;9.530;2023-05-07T04:43:59;5.53;;;5.13;;
2259;SDS011;333;48.800;9.530;2023-05-07T04:46:26;5.67;;;5.27;;
2259;SDS011;333;48.800;9.530;2023-05-07T04:48:52;6.57;;;5.97;;
2259;SDS011;333;48.800;9.530;2023-05-07T04:51:21;6.17;;;5.60;;
2259;SDS011;333;48.800;9.530;2023-05-07T04:53:48;5.57;;;5.07;;
2259;SDS011;333;48.800;9.530;2023-05-07T04:56:15;5.20;;;4.40;;
2259;SDS011;333;48.800;9.530;2023-05-07T04:58:42;6.33;;;5.10;;
2259;SDS011;333;48.800;9.530;2023-05-07T05:01:09;5.93;;;5.43;;
2259;SDS011;333;48.800;9.530;2023-05-07T05:03:36;5.17;;;4.67;;
2259;SDS011;333;48.800;9.530;2023-05-07T05:06:04;5.63;;;5.13;;
2259;SDS011;333;48.800;9.530;2023-05-07T05:08:32;5.10;;;4.70;;
2259;SDS011;333;48.800;9.530;2023-05-07T05:11:00;8.80;;;6.17;;
2259;SDS011;333;48.800;9.530;2023-05-07T05:13:27;5.00;;;4.60;;
2259;SDS011;333;48.800;9.530;2023-05-07T05:15:55;4.60;;;4.20;;
2259;SDS011;333;48.800;9.530;2023-05-07T05:18:22;6.70;;;4.10;;
2259;SDS011;333;48.800;9.530;2023-05-07T05:20:49;4.50;;;4.20;;
2259;SDS011;333;48.800;9.530;2023-05-07T05:23:18;5.30;;;4.77;;
2259;SDS011;333;48.800;9.530;2023-05-07T05:25:46;4.93;;;4.60;;
2259;SDS011;333;48.800;9.530;2023-05-07T05:28:13;4.10;;;3.80;;
2259;SDS011;333;48.800;9.530;2023-05-07T05:30:40;9.33;;;5.30;;
2259;SDS011;333;48.800;9.530;2023-05-07T05:33:07;5.17;;;4.63;;
2259;SDS011;333;48.800;9.530;2023-05-07T05:35:34;5.53;;;4.93;;
2259;SDS011;333;48.800;9.530;2023-05-07T05:38:01;5.30;;;4.80;;
2259;SDS011;333;48.800;9.530;2023-05-07T05:40:28;4.80;;;4.40;;
2259;SDS011;333;48.800;9.530;2023-05-07T05:42:56;5.20;;;4.80;;
2259;SDS011;333;48.800;9.530;2023-05-07T05:45:23;5.23;;;4.80;;
2259;SDS011;333;48.800;9.530;2023-05-07T05:47:50;4.83;;;4.43;;
2259;SDS011;333;48.800;9.530;2023-05-07T05:50:17;4.77;;;4.37;;
2259;SDS011;333;48.800;9.530;2023-05-07T05:52:45;5.77;;;4.67;;
2259;SDS011;333;48.800;9.530;2023-05-07T05:55:11;5.53;;;5.03;;
2259;SDS011;333;48.800;9.530;2023-05-07T05:57:38;4.30;;;4.00;;
2259;SDS011;333;48.800;9.530;2023-05-07T06:00:08;12.40;;;5.50;;
2259;SDS011;333;48.800;9.530;2023-05-07T06:02:36;3.83;;;3.53;;
2259;SDS011;333;48.800;9.530;2023-05-07T06:05:03;5.30;;;4.90;;
2259;SDS011;333;48.800;9.530;2023-05-07T06:07:31;3.93;;;3.63;;
2259;SDS011;333;48.800;9.530;2023-05-07T06:09:58;4.87;;;4.47;;
2259;SDS011;333;48.800;9.530;2023-05-07T06:12:25;4.83;;;4.40;;
2259;SDS011;333;48.800;9.530;2023-05-07T06:14:52;4.97;;;4.57;;
2259;SDS011;333;48.800;9.530;2023-05-07T06:17:20;4.83;;;3.47;;
2259;SDS011;333;48.800;9.530;2023-05-07T06:19:47;3.90;;;3.60;;
2259;SDS011;333;48.800;9.530;2023-05-07T06:22:14;4.97;;;4.53;;
2259;SDS011;333;48.800;9.530;2023-05-07T06:24:41;6.53;;;3.83;;
2259;SDS011;333;48.800;9.530;2023-05-07T06:27:08;5.17;;;4.77;;
2259;SDS011;333;48.800;9.530;2023-05-07T06:29:35;4.40;;;4.00;;
2259;SDS011;333;48.800;9.530;2023-05-07T06:32:06;3.83;;;3.53;;
2259;SDS011;333;48.800;9.530;2023-05-07T06:34:35;4.53;;;3.70;;
2259;SDS011;333;48.800;9.530;2023-05-07T06:37:02;3.93;;;3.53;;
2259;SDS011;333;48.800;9.530;2023-05-07T06:39:29;4.23;;;3.70;;
2259;SDS011;333;48.800;9.530;2023-05-07T06:41:55;4.17;;;3.77;;
2259;SDS011;333;48.800;9.530;2023-05-07T06:44:22;4.37;;;3.20;;
2259;SDS011;333;48.800;9.530;2023-05-07T06:46:49;3.80;;;3.50;;
2259;SDS011;333;48.800;9.530;2023-05-07T06:49:16;3.70;;;3.40;;
2259;SDS011;333;48.800;9.530;2023-05-07T06:51:44;3.80;;;3.50;;
2259;SDS011;333;48.800;9.530;2023-05-07T06:54:11;3.60;;;3.30;;
2259;SDS011;333;48.800;9.530;2023-05-07T06:56:38;3.90;;;3.60;;
2259;SDS011;333;48.800;9.530;2023-05-07T06:59:05;5.13;;;4.73;;
2259;SDS011;333;48.800;9.530;2023-05-07T07:01:32;2.73;;;2.53;;
2259;SDS011;333;48.800;9.530;2023-05-07T07:03:59;4.23;;;3.33;;
2259;SDS011;333;48.800;9.530;2023-05-07T07:06:26;3.10;;;2.80;;
2259;SDS011;333;48.800;9.530;2023-05-07T07:08:55;3.13;;;2.87;;
2259;SDS011;333;48.800;9.530;2023-05-07T07:11:21;3.00;;;2.70;;
2259;SDS011;333;48.800;9.530;2023-05-07T07:13:48;3.27;;;2.97;;
2259;SDS011;333;48.800;9.530;2023-05-07T07:16:15;2.63;;;2.43;;
2259;SDS011;333;48.800;9.530;2023-05-07T07:18:42;3.30;;;3.00;;
2259;SDS011;333;48.800;9.530;2023-05-07T07:21:10;3.90;;;2.87;;
2259;SDS011;333;48.800;9.530;2023-05-07T07:23:36;3.70;;;3.40;;
2259;SDS011;333;48.800;9.530;2023-05-07T07:26:05;3.70;;;2.40;;
2259;SDS011;333;48.800;9.530;2023-05-07T07:28:32;2.73;;;2.60;;
2259;SDS011;333;48.800;9.530;2023-05-07T07:30:59;3.00;;;2.80;;
2259;SDS011;333;48.800;9.530;2023-05-07T07:33:26;2.80;;;2.60;;
2259;SDS011;333;48.800;9.530;2023-05-07T07:35:52;3.00;;;2.80;;
2259;SDS011;333;48.800;9.530;2023-05-07T07:38:21;2.33;;;2.13;;
2259;SDS011;333;48.800;9.530;2023-05-07T07:40:48;2.80;;;2.60;;
2259;SDS011;333;48.800;9.530;2023-05-07T07:43:16;3.87;;;3.50;;
2259;SDS011;333;48.800;9.530;2023-05-07T07:45:43;3.00;;;2.80;;
2259;SDS011;333;48.800;9.530;2023-05-07T07:48:11;3.20;;;2.70;;
2259;SDS011;333;48.800;9.530;2023-05-07T07:50:38;3.13;;;2.77;;
2259;SDS011;333;48.800;9.530;2023-05-07T07:53:04;5.40;;;2.90;;
2259;SDS011;333;48.800;9.530;2023-05-07T07:55:31;3.37;;;2.97;;
2259;SDS011;333;48.800;9.530;2023-05-07T07:57:58;3.97;;;2.93;;
2259;SDS011;333;48.800;9.530;2023-05-07T08:00:27;2.90;;;2.70;;
2259;SDS011;333;48.800;9.530;2023-05-07T08:02:53;2.53;;;2.33;;
2259;SDS011;333;48.800;9.530;2023-05-07T08:05:20;3.07;;;2.77;;
2259;SDS011;333;48.800;9.530;2023-05-07T08:07:47;4.50;;;3.17;;
2259;SDS011;333;48.800;9.530;2023-05-07T08:10:17;2.93;;;2.53;;
2259;SDS011;333;48.800;9.530;2023-05-07T08:12:46;6.33;;;3.23;;
2259;SDS011;333;48.800;9.530;2023-05-07T08:15:13;4.13;;;2.90;;
2259;SDS011;333;48.800;9.530;2023-05-07T08:17:42;2.70;;;2.40;;
2259;SDS011;333;48.800;9.530;2023-05-07T08:20:09;3.40;;;3.20;;
2259;SDS011;333;48.800;9.530;2023-05-07T08:22:36;3.23;;;3.03;;
2259;SDS011;333;48.800;9.530;2023-05-07T08:25:04;3.50;;;3.20;;
2259;SDS011;333;48.800;9.530;2023-05-07T08:27:31;3.03;;;2.70;;
2259;SDS011;333;48.800;9.530;2023-05-07T08:29:58;3.17;;;2.87;;
2259;SDS011;333;48.800;9.530;2023-05-07T08:32:25;2.90;;;2.70;;
2259;SDS011;333;48.800;9.530;2023-05-07T08:34:54;3.00;;;2.80;;
2259;SDS011;333;48.800;9.530;2023-05-07T08:37:21;4.90;;;2.83;;
2259;SDS011;333;48.800;9.530;2023-05-07T08:39:47;2.90;;;2.70;;
2259;SDS011;333;48.800;9.530;2023-05-07T08:42:15;2.87;;;2.67;;
2259;SDS011;333;48.800;9.530;2023-05-07T08:44:45;3.63;;;3.13;;
2259;SDS011;333;48.800;9.530;2023-05-07T08:47:13;2.63;;;2.43;;
2259;SDS011;333;48.800;9.530;2023-05-07T08:49:40;3.40;;;2.80;;
2259;SDS011;333;48.800;9.530;2023-05-07T08:52:08;3.17;;;2.57;;
2259;SDS011;333;48.800;9.530;2023-05-07T08:54:36;3.23;;;2.33;;
2259;SDS011;333;48.800;9.530;2023-05-07T08:57:03;2.93;;;2.73;;
2259;SDS011;333;48.800;9.530;2023-05-07T08:59:30;2.33;;;2.20;;
2259;SDS011;333;48.800;9.530;2023-05-07T09:01:57;3.53;;;3.23;;
2259;SDS011;333;48.800;9.530;2023-05-07T09:04:24;3.20;;;2.97;;
2259;SDS011;333;48.800;9.530;2023-05-07T09:06:51;2.77;;;2.57;;
2259;SDS011;333;48.800;9.530;2023-05-07T09:09:21;2.80;;;2.33;;
2259;SDS011;333;48.800;9.530;2023-05-07T09:11:48;2.63;;;2.43;;
2259;SDS011;333;48.800;9.530;2023-05-07T09:14:23;2.50;;;2.40;;
2259;SDS011;333;48.800;9.530;2023-05-07T09:16:51;3.60;;;2.70;;
2259;SDS011;333;48.800;9.530;2023-05-07T09:19:22;3.07;;;2.87;;
2259;SDS011;333;48.800;9.530;2023-05-07T09:21:49;2.83;;;2.63;;
2259;SDS011;333;48.800;9.530;2023-05-07T09:24:16;8.13;;;2.70;;
2259;SDS011;333;48.800;9.530;2023-05-07T09:26:44;2.53;;;2.33;;
2259;SDS011;333;48.800;9.530;2023-05-07T09:29:11;2.80;;;2.60;;
2259;SDS011;333;48.800;9.530;2023-05-07T09:31:38;2.60;;;2.40;;
2259;SDS011;333;48.800;9.530;2023-05-07T09:34:05;2.70;;;2.50;;
2259;SDS011;333;48.800;9.530;2023-05-07T09:36:33;2.43;;;2.10;;
2259;SDS011;333;48.800;9.530;2023-05-07T09:39:00;2.40;;;2.30;;
2259;SDS011;333;48.800;9.530;2023-05-07T09:41:27;2.63;;;2.43;;
2259;SDS011;333;48.800;9.530;2023-05-07T09:43:58;2.60;;;2.40;;
2259;SDS011;333;48.800;9.530;2023-05-07T09:46:27;5.10;;;2.80;;
2259;SDS011;333;48.800;9.530;2023-05-07T09:48:57;2.30;;;2.20;;
2259;SDS011;333;48.800;9.530;2023-05-07T09:51:29;2.67;;;2.47;;
2259;SDS011;333;48.800;9.530;2023-05-07T09:54:00;2.37;;;2.27;;
2259;SDS011;333;48.800;9.530;2023-05-07T09:56:29;2.70;;;2.50;;
2259;SDS011;333;48.800;9.530;2023-05-07T09:58:59;3.00;;;2.80;;
2259;SDS011;333;48.800;9.530;2023-05-07T10:01:27;2.83;;;2.60;;
2259;SDS011;333;48.800;9.530;2023-05-07T10:03:56;2.70;;;2.50;;
2259;SDS011;333;48.800;9.530;2023-05-07T10:06:25;2.70;;;2.50;;
2259;SDS011;333;48.800;9.530;2023-05-07T10:08:52;2.97;;;2.67;;
2259;SDS011;333;48.800;9.530;2023-05-07T10:11:20;3.00;;;2.80;;
2259;SDS011;333;48.800;9.530;2023-05-07T10:13:48;2.37;;;2.27;;
2259;SDS011;333;48.800;9.530;2023-05-07T10:16:17;4.23;;;2.30;;
2259;SDS011;333;48.800;9.530;2023-05-07T10:18:45;2.83;;;2.40;;
2259;SDS011;333;48.800;9.530;2023-05-07T10:21:15;3.57;;;3.23;;
2259;SDS011;333;48.800;9.530;2023-05-07T10:23:44;3.37;;;3.07;;
2259;SDS011;333;48.800;9.530;2023-05-07T10:26:12;2.33;;;2.13;;
2259;SDS011;333;48.800;9.530;2023-05-07T10:28:41;2.90;;;2.70;;
2259;SDS011;333;48.800;9.530;2023-05-07T10:31:34;2.23;;;2.10;;
2259;SDS011;333;48.800;9.530;2023-05-07T10:34:22;2.43;;;2.23;;
2259;SDS011;333;48.800;9.530;2023-05-07T10:36:52;3.33;;;2.67;;
2259;SDS011;333;48.800;9.530;2023-05-07T10:39:20;2.80;;;2.60;;
2259;SDS011;333;48.800;9.530;2023-05-07T10:41:50;2.73;;;2.43;;
2259;SDS011;333;48.800;9.530;2023-05-07T10:44:26;2.37;;;2.23;;
2259;SDS011;333;48.800;9.530;2023-05-07T10:47:05;7.10;;;2.40;;
2259;SDS011;333;48.800;9.530;2023-05-07T10:49:34;3.77;;;3.07;;
2259;SDS011;333;48.800;9.530;2023-05-07T10:52:11;2.83;;;2.43;;
2259;SDS011;333;48.800;9.530;2023-05-07T10:54:42;2.60;;;2.30;;
2259;SDS011;333;48.800;9.530;2023-05-07T11:00:04;2.63;;;2.40;;
2259;SDS011;333;48.800;9.530;2023-05-07T11:03:13;2.60;;;2.40;;
2259;SDS011;333;48.800;9.530;2023-05-07T11:05:41;2.90;;;2.70;;
2259;SDS011;333;48.800;9.530;2023-05-07T11:08:09;4.63;;;2.50;;
2259;SDS011;333;48.800;9.530;2023-05-07T11:10:48;2.87;;;2.67;;
2259;SDS011;333;48.800;9.530;2023-05-07T11:13:17;4.30;;;2.50;;
2259;SDS011;333;48.800;9.530;2023-05-07T11:15:45;2.90;;;2.50;;
2259;SDS011;333;48.800;9.530;2023-05-07T11:18:14;2.70;;;2.50;;
2259;SDS011;333;48.800;9.530;2023-05-07T11:20:46;2.60;;;2.40;;
2259;SDS011;333;48.800;9.530;2023-05-07T11:26:17;2.80;;;2.40;;
2259;SDS011;333;48.800;9.530;2023-05-07T11:28:44;1.80;;;1.70;;
2259;SDS011;333;48.800;9.530;2023-05-07T11:31:11;2.80;;;2.60;;
2259;SDS011;333;48.800;9.530;2023-05-07T11:33:40;3.07;;;2.30;;
2259;SDS011;333;48.800;9.530;2023-05-07T11:36:09;2.30;;;2.20;;
2259;SDS011;333;48.800;9.530;2023-05-07T11:38:37;3.17;;;2.23;;
2259;SDS011;333;48.800;9.530;2023-05-07T11:41:04;2.67;;;2.20;;
2259;SDS011;333;48.800;9.530;2023-05-07T11:43:31;3.70;;;2.47;;
2259;SDS011;333;48.800;9.530;2023-05-07T11:46:08;3.10;;;2.40;;
2259;SDS011;333;48.800;9.530;2023-05-07T11:48:36;3.77;;;2.30;;
2259;SDS011;333;48.800;9.530;2023-05-07T11:51:05;2.53;;;2.40;;
2259;SDS011;333;48.800;9.530;2023-05-07T11:53:37;2.07;;;1.97;;
2259;SDS011;333;48.800;9.530;2023-05-07T11:56:08;2.70;;;2.47;;
2259;SDS011;333;48.800;9.530;2023-05-07T11:58:36;2.27;;;2.07;;
2259;SDS011;333;48.800;9.530;2023-05-07T12:01:03;2.50;;;2.40;;
2259;SDS011;333;48.800;9.530;2023-05-07T12:03:30;2.47;;;2.27;;
2259;SDS011;333;48.800;9.530;2023-05-07T12:05:57;2.60;;;2.50;;
2259;SDS011;333;48.800;9.530;2023-05-07T12:08:27;2.20;;;2.10;;
2259;SDS011;333;48.800;9.530;2023-05-07T12:10:54;2.50;;;2.40;;
2259;SDS011;333;48.800;9.530;2023-05-07T12:13:22;2.63;;;2.40;;
2259;SDS011;333;48.800;9.530;2023-05-07T12:15:50;4.47;;;2.53;;
2259;SDS011;333;48.800;9.530;2023-05-07T12:18:17;2.13;;;2.03;;
2259;SDS011;333;48.800;9.530;2023-05-07T12:20:45;2.50;;;2.30;;
2259;SDS011;333;48.800;9.530;2023-05-07T12:23:12;2.63;;;2.37;;
2259;SDS011;333;48.800;9.530;2023-05-07T12:25:41;2.50;;;2.40;;
2259;SDS011;333;48.800;9.530;2023-05-07T12:28:12;2.60;;;2.40;;
2259;SDS011;333;48.800;9.530;2023-05-07T12:30:40;2.67;;;2.47;;
2259;SDS011;333;48.800;9.530;2023-05-07T12:33:08;2.40;;;2.20;;
2259;SDS011;333;48.800;9.530;2023-05-07T12:35:36;2.07;;;1.87;;
2259;SDS011;333;48.800;9.530;2023-05-07T12:38:06;2.40;;;2.20;;
2259;SDS011;333;48.800;9.530;2023-05-07T12:40:37;1.97;;;1.87;;
2259;SDS011;333;48.800;9.530;2023-05-07T12:43:07;2.20;;;2.00;;
2259;SDS011;333;48.800;9.530;2023-05-07T12:45:36;3.30;;;2.77;;
2259;SDS011;333;48.800;9.530;2023-05-07T12:48:04;2.37;;;2.20;;
2259;SDS011;333;48.800;9.530;2023-05-07T12:50:31;4.63;;;2.33;;
2259;SDS011;333;48.800;9.530;2023-05-07T12:52:59;2.20;;;2.10;;
2259;SDS011;333;48.800;9.530;2023-05-07T12:55:28;2.33;;;2.10;;
2259;SDS011;333;48.800;9.530;2023-05-07T12:57:55;2.77;;;2.57;;
2259;SDS011;333;48.800;9.530;2023-05-07T13:00:35;2.37;;;2.10;;
2259;SDS011;333;48.800;9.530;2023-05-07T13:03:03;1.80;;;1.70;;
2259;SDS011;333;48.800;9.530;2023-05-07T13:05:30;2.33;;;2.20;;
2259;SDS011;333;48.800;9.530;2023-05-07T13:07:58;2.67;;;2.30;;
2259;SDS011;333;48.800;9.530;2023-05-07T13:10:25;2.43;;;2.23;;
2259;SDS011;333;48.800;9.530;2023-05-07T13:12:53;3.57;;;2.47;;
2259;SDS011;333;48.800;9.530;2023-05-07T13:15:20;2.87;;;2.67;;
2259;SDS011;333;48.800;9.530;2023-05-07T13:17:49;4.20;;;2.63;;
2259;SDS011;333;48.800;9.530;2023-05-07T13:20:16;3.13;;;2.83;;
2259;SDS011;333;48.800;9.530;2023-05-07T13:22:43;2.77;;;2.57;;
2259;SDS011;333;48.800;9.530;2023-05-07T13:25:10;3.07;;;2.50;;
2259;SDS011;333;48.800;9.530;2023-05-07T13:27:37;2.10;;;2.00;;
2259;SDS011;333;48.800;9.530;2023-05-07T13:30:05;2.50;;;2.30;;
2259;SDS011;333;48.800;9.530;2023-05-07T13:32:32;4.93;;;2.70;;
2259;SDS011;333;48.800;9.530;2023-05-07T13:35:01;4.50;;;3.03;;
2259;SDS011;333;48.800;9.530;2023-05-07T13:37:28;2.60;;;2.40;;
2259;SDS011;333;48.800;9.530;2023-05-07T13:39:55;2.87;;;2.67;;
2259;SDS011;333;48.800;9.530;2023-05-07T13:42:22;2.60;;;2.40;;
2259;SDS011;333;48.800;9.530;2023-05-07T13:44:49;4.97;;;4.50;;
2259;SDS011;333;48.800;9.530;2023-05-07T13:47:16;3.00;;;2.70;;
2259;SDS011;333;48.800;9.530;2023-05-07T13:49:43;4.20;;;2.97;;
2259;SDS011;333;48.800;9.530;2023-05-07T13:52:11;2.80;;;2.60;;
2259;SDS011;333;48.800;9.530;2023-05-07T13:54:38;3.53;;;3.23;;
2259;SDS011;333;48.800;9.530;2023-05-07T13:57:05;3.37;;;3.10;;
2259;SDS011;333;48.800;9.530;2023-05-07T13:59:32;2.93;;;2.60;;
2259;SDS011;333;48.800;9.530;2023-05-07T14:01:59;3.00;;;2.80;;
2259;SDS011;333;48.800;9.530;2023-05-07T14:04:26;2.80;;;2.60;;
2259;SDS011;333;48.800;9.530;2023-05-07T14:06:53;3.53;;;2.90;;
2259;SDS011;333;48.800;9.530;2023-05-07T14:09:22;2.80;;;2.60;;
2259;SDS011;333;48.800;9.530;2023-05-07T14:11:49;2.60;;;2.50;;
2259;SDS011;333;48.800;9.530;2023-05-07T14:14:16;2.50;;;2.30;;
2259;SDS011;333;48.800;9.530;2023-05-07T14:16:43;2.67;;;2.47;;
2259;SDS011;333;48.800;9.530;2023-05-07T14:19:10;3.00;;;2.80;;
2259;SDS011;333;48.800;9.530;2023-05-07T14:21:37;3.40;;;2.90;;
2259;SDS011;333;48.800;9.530;2023-05-07T14:24:05;4.17;;;3.87;;
2259;SDS011;333;48.800;9.530;2023-05-07T14:26:34;2.40;;;2.20;;
2259;SDS011;333;48.800;9.530;2023-05-07T14:29:01;4.73;;;2.20;;
2259;SDS011;333;48.800;9.530;2023-05-07T14:31:28;2.20;;;2.00;;
2259;SDS011;333;48.800;9.530;2023-05-07T14:33:55;2.63;;;2.30;;
2259;SDS011;333;48.800;9.530;2023-05-07T14:36:23;2.63;;;2.10;;
2259;SDS011;333;48.800;9.530;2023-05-07T14:38:51;3.17;;;2.47;;
2259;SDS011;333;48.800;9.530;2023-05-07T14:41:18;1.83;;;1.73;;
2259;SDS011;333;48.800;9.530;2023-05-07T14:43:47;1.60;;;1.50;;
2259;SDS011;333;48.800;9.530;2023-05-07T14:46:15;2.93;;;1.57;;
2259;SDS011;333;48.800;9.530;2023-05-07T14:48:43;2.20;;;1.43;;
2259;SDS011;333;48.800;9.530;2023-05-07T14:51:11;2.13;;;1.50;;
2259;SDS011;333;48.800;9.530;2023-05-07T14:53:38;2.63;;;1.50;;
2259;SDS011;333;48.800;9.530;2023-05-07T14:56:06;2.20;;;1.73;;
2259;SDS011;333;48.800;9.530;2023-05-07T14:58:34;2.30;;;1.40;;
2259;SDS011;333;48.800;9.530;2023-05-07T15:01:02;1.90;;;1.80;;
2259;SDS011;333;48.800;9.530;2023-05-07T15:03:30;2.43;;;1.97;;
2259;SDS011;333;48.800;9.530;2023-05-07T15:05:57;4.13;;;1.60;;
2259;SDS011;333;48.800;9.530;2023-05-07T15:08:23;1.50;;;1.40;;
2259;SDS011;333;48.800;9.530;2023-05-07T15:10:50;2.73;;;1.53;;
2259;SDS011;333;48.800;9.530;2023-05-07T15:13:17;1.67;;;1.57;;
2259;SDS011;333;48.800;9.530;2023-05-07T15:15:44;1.40;;;1.30;;
2259;SDS011;333;48.800;9.530;2023-05-07T15:18:13;2.30;;;1.30;;
2259;SDS011;333;48.800;9.530;2023-05-07T15:20:40;2.70;;;1.80;;
2259;SDS011;333;48.800;9.530;2023-05-07T15:23:08;1.80;;;1.53;;
2259;SDS011;333;48.800;9.530;2023-05-07T15:25:36;2.07;;;1.87;;
2259;SDS011;333;48.800;9.530;2023-05-07T15:28:03;1.67;;;1.57;;
2259;SDS011;333;48.800;9.530;2023-05-07T15:30:30;1.80;;;1.70;;
2259;SDS011;333;48.800;9.530;2023-05-07T15:32:57;1.97;;;1.60;;
2259;SDS011;333;48.800;9.530;2023-05-07T15:35:26;1.80;;;1.70;;
2259;SDS011;333;48.800;9.530;2023-05-07T15:37:53;2.10;;;2.00;;
2259;SDS011;333;48.800;9.530;2023-05-07T15:40:20;2.13;;;1.77;;